sensor_id;sensor_type;location;lat;lon;timestamp;P1;durP1;ratioP1;P2;durP2;ratioP2
9799;SDS011;4939;52.00085300;4.17406100;2022-07-29T00:00:00;6.05;;;1.63;;
9799;SDS011;4939;52.00085300;4.17406100;2022-07-29T00:02:27;5.72;;;1.60;;
9799;SDS011;4939;52.00085300;4.17406100;2022-07-29T00:04:53;5.72;;;1.50;;
9799;SDS011;4939;52.00085300;4.17406100;2022-07-29T00:07:19;4.78;;;1.50;;
9799;SDS011;4939;52.00085300;4.17406100;2022-07-29T00:09:45;5.50;;;1.50;;
9799;SDS011;4939;52.00085300;4.17406100;2022-07-29T00:12:11;5.50;;;1.60;;
9799;SDS011;4939;52.00085300;4.17406100;2022-07-29T00:14:37;6.00;;;1.60;;
9799;SDS011;4939;52.00085300;4.17406100;2022-07-29T00:17:03;6.22;;;1.55;;
9799;SDS011;4939;52.00085300;4.17406100;2022-07-29T00:19:29;5.20;;;1.60;;
9799;SDS011;4939;52.00085300;4.17406100;2022-07-29T00:21:55;3.95;;;1.27;;
9799;SDS011;4939;52.00085300;4.17406100;2022-07-29T00:24:21;5.00;;;1.40;;
9799;SDS011;4939;52.00085300;4.17406100;2022-07-29T00:26:47;6.22;;;1.75;;
9799;SDS011;4939;52.00085300;4.17406100;2022-07-29T00:29:13;8.95;;;1.60;;
9799;SDS011;4939;52.00085300;4.17406100;2022-07-29T00:31:39;5.75;;;1.75;;
9799;SDS011;4939;52.00085300;4.17406100;2022-07-29T00:34:05;4.63;;;1.40;;
9799;SDS011;4939;52.00085300;4.17406100;2022-07-29T00:36:51;5.68;;;1.75;;
9799;SDS011;4939;52.00085300;4.17406100;2022-07-29T00:39:17;7.75;;;1.50;;
9799;SDS011;4939;52.00085300;4.17406100;2022-07-29T00:41:43;5.05;;;1.63;;
9799;SDS011;4939;52.00085300;4.17406100;2022-07-29T00:44:09;6.05;;;1.50;;
9799;SDS011;4939;52.00085300;4.17406100;2022-07-29T00:46:35;6.70;;;1.77;;
9799;SDS011;4939;52.00085300;4.17406100;2022-07-29T00:49:01;4.57;;;1.73;;
9799;SDS011;4939;52.00085300;4.17406100;2022-07-29T00:51:27;6.70;;;1.77;;
9799;SDS011;4939;52.00085300;4.17406100;2022-07-29T00:53:53;8.00;;;1.60;;
9799;SDS011;4939;52.00085300;4.17406100;2022-07-29T00:56:19;5.22;;;1.40;;
9799;SDS011;4939;52.00085300;4.17406100;2022-07-29T00:58:46;6.28;;;1.50;;
9799;SDS011;4939;52.00085300;4.17406100;2022-07-29T01:01:12;7.53;;;1.30;;
9799;SDS011;4939;52.00085300;4.17406100;2022-07-29T01:03:38;5.03;;;1.52;;
9799;SDS011;4939;52.00085300;4.17406100;2022-07-29T01:06:04;7.72;;;1.77;;
9799;SDS011;4939;52.00085300;4.17406100;2022-07-29T01:08:31;4.65;;;1.40;;
9799;SDS011;4939;52.00085300;4.17406100;2022-07-29T01:10:58;4.78;;;1.40;;
9799;SDS011;4939;52.00085300;4.17406100;2022-07-29T01:13:25;5.43;;;1.45;;
9799;SDS011;4939;52.00085300;4.17406100;2022-07-29T01:15:54;4.35;;;1.40;;
9799;SDS011;4939;52.00085300;4.17406100;2022-07-29T01:18:24;4.97;;;1.52;;
9799;SDS011;4939;52.00085300;4.17406100;2022-07-29T01:21:07;4.75;;;1.60;;
9799;SDS011;4939;52.00085300;4.17406100;2022-07-29T01:23:59;11.65;;;1.90;;
9799;SDS011;4939;52.00085300;4.17406100;2022-07-29T01:31:28;10.95;;;1.55;;
9799;SDS011;4939;52.00085300;4.17406100;2022-07-29T01:33:58;7.88;;;1.70;;
9799;SDS011;4939;52.00085300;4.17406100;2022-07-29T01:36:35;5.97;;;1.75;;
9799;SDS011;4939;52.00085300;4.17406100;2022-07-29T01:39:07;5.28;;;1.85;;
9799;SDS011;4939;52.00085300;4.17406100;2022-07-29T01:41:34;6.82;;;1.65;;
9799;SDS011;4939;52.00085300;4.17406100;2022-07-29T01:44:09;6.50;;;1.55;;
9799;SDS011;4939;52.00085300;4.17406100;2022-07-29T01:46:36;5.20;;;1.73;;
9799;SDS011;4939;52.00085300;4.17406100;2022-07-29T01:49:10;6.60;;;1.70;;
9799;SDS011;4939;52.00085300;4.17406100;2022-07-29T01:51:41;6.90;;;1.77;;
9799;SDS011;4939;52.00085300;4.17406100;2022-07-29T01:54:14;5.18;;;1.70;;
9799;SDS011;4939;52.00085300;4.17406100;2022-07-29T01:56:42;4.20;;;1.70;;
9799;SDS011;4939;52.00085300;4.17406100;2022-07-29T01:59:09;6.55;;;1.45;;
9799;SDS011;4939;52.00085300;4.17406100;2022-07-29T02:01:36;4.00;;;1.60;;
9799;SDS011;4939;52.00085300;4.17406100;2022-07-29T02:04:03;6.63;;;2.10;;
9799;SDS011;4939;52.00085300;4.17406100;2022-07-29T02:06:30;4.68;;;1.48;;
9799;SDS011;4939;52.00085300;4.17406100;2022-07-29T02:08:58;5.82;;;1.80;;
9799;SDS011;4939;52.00085300;4.17406100;2022-07-29T02:11:24;6.43;;;1.60;;
9799;SDS011;4939;52.00085300;4.17406100;2022-07-29T02:13:50;3.78;;;1.60;;
9799;SDS011;4939;52.00085300;4.17406100;2022-07-29T02:16:18;4.35;;;1.73;;
9799;SDS011;4939;52.00085300;4.17406100;2022-07-29T02:18:46;5.35;;;1.65;;
9799;SDS011;4939;52.00085300;4.17406100;2022-07-29T02:21:13;6.25;;;1.60;;
9799;SDS011;4939;52.00085300;4.17406100;2022-07-29T02:23:43;6.50;;;1.57;;
9799;SDS011;4939;52.00085300;4.17406100;2022-07-29T02:26:10;4.30;;;1.42;;
9799;SDS011;4939;52.00085300;4.17406100;2022-07-29T02:28:36;5.30;;;1.50;;
9799;SDS011;4939;52.00085300;4.17406100;2022-07-29T02:31:05;7.40;;;1.70;;
9799;SDS011;4939;52.00085300;4.17406100;2022-07-29T02:33:31;7.65;;;2.08;;
9799;SDS011;4939;52.00085300;4.17406100;2022-07-29T02:35:58;8.30;;;2.00;;
9799;SDS011;4939;52.00085300;4.17406100;2022-07-29T02:38:25;5.40;;;1.80;;
9799;SDS011;4939;52.00085300;4.17406100;2022-07-29T02:41:12;7.55;;;1.70;;
9799;SDS011;4939;52.00085300;4.17406100;2022-07-29T02:43:39;6.13;;;1.80;;
9799;SDS011;4939;52.00085300;4.17406100;2022-07-29T02:46:07;9.63;;;1.98;;
9799;SDS011;4939;52.00085300;4.17406100;2022-07-29T02:48:34;4.88;;;1.60;;
9799;SDS011;4939;52.00085300;4.17406100;2022-07-29T02:51:05;7.65;;;1.70;;
9799;SDS011;4939;52.00085300;4.17406100;2022-07-29T02:53:32;6.90;;;1.80;;
9799;SDS011;4939;52.00085300;4.17406100;2022-07-29T02:55:59;3.28;;;1.40;;
9799;SDS011;4939;52.00085300;4.17406100;2022-07-29T03:01:03;5.55;;;1.98;;
9799;SDS011;4939;52.00085300;4.17406100;2022-07-29T03:03:32;5.25;;;1.80;;
9799;SDS011;4939;52.00085300;4.17406100;2022-07-29T03:05:59;7.70;;;1.70;;
9799;SDS011;4939;52.00085300;4.17406100;2022-07-29T03:08:26;6.63;;;2.20;;
9799;SDS011;4939;52.00085300;4.17406100;2022-07-29T03:10:54;6.40;;;1.75;;
9799;SDS011;4939;52.00085300;4.17406100;2022-07-29T03:13:21;9.68;;;1.85;;
9799;SDS011;4939;52.00085300;4.17406100;2022-07-29T03:15:47;5.68;;;1.63;;
9799;SDS011;4939;52.00085300;4.17406100;2022-07-29T03:18:13;6.55;;;1.77;;
9799;SDS011;4939;52.00085300;4.17406100;2022-07-29T03:20:40;5.40;;;1.67;;
9799;SDS011;4939;52.00085300;4.17406100;2022-07-29T03:23:06;6.50;;;1.85;;
9799;SDS011;4939;52.00085300;4.17406100;2022-07-29T03:25:32;5.68;;;1.60;;
9799;SDS011;4939;52.00085300;4.17406100;2022-07-29T03:27:58;5.82;;;2.42;;
9799;SDS011;4939;52.00085300;4.17406100;2022-07-29T03:30:24;7.07;;;2.10;;
9799;SDS011;4939;52.00085300;4.17406100;2022-07-29T03:32:50;4.40;;;1.83;;
9799;SDS011;4939;52.00085300;4.17406100;2022-07-29T03:35:17;6.03;;;2.00;;
9799;SDS011;4939;52.00085300;4.17406100;2022-07-29T03:37:44;5.70;;;2.03;;
9799;SDS011;4939;52.00085300;4.17406100;2022-07-29T03:40:11;7.35;;;2.00;;
9799;SDS011;4939;52.00085300;4.17406100;2022-07-29T03:42:38;6.18;;;1.75;;
9799;SDS011;4939;52.00085300;4.17406100;2022-07-29T03:45:09;6.45;;;1.95;;
9799;SDS011;4939;52.00085300;4.17406100;2022-07-29T03:47:36;8.20;;;2.13;;
9799;SDS011;4939;52.00085300;4.17406100;2022-07-29T03:50:05;10.38;;;1.85;;
9799;SDS011;4939;52.00085300;4.17406100;2022-07-29T03:52:32;7.68;;;2.03;;
9799;SDS011;4939;52.00085300;4.17406100;2022-07-29T03:54:58;7.70;;;1.90;;
9799;SDS011;4939;52.00085300;4.17406100;2022-07-29T03:57:25;8.40;;;1.85;;
9799;SDS011;4939;52.00085300;4.17406100;2022-07-29T03:59:52;9.57;;;2.58;;
9799;SDS011;4939;52.00085300;4.17406100;2022-07-29T04:02:19;6.05;;;2.25;;
9799;SDS011;4939;52.00085300;4.17406100;2022-07-29T04:04:45;6.47;;;2.10;;
9799;SDS011;4939;52.00085300;4.17406100;2022-07-29T04:07:12;8.93;;;2.20;;
9799;SDS011;4939;52.00085300;4.17406100;2022-07-29T04:09:38;5.93;;;2.40;;
9799;SDS011;4939;52.00085300;4.17406100;2022-07-29T04:12:04;4.78;;;1.88;;
9799;SDS011;4939;52.00085300;4.17406100;2022-07-29T04:14:31;6.38;;;2.38;;
9799;SDS011;4939;52.00085300;4.17406100;2022-07-29T04:16:58;5.57;;;2.35;;
9799;SDS011;4939;52.00085300;4.17406100;2022-07-29T04:19:24;6.22;;;2.20;;
9799;SDS011;4939;52.00085300;4.17406100;2022-07-29T04:21:50;5.43;;;2.22;;
9799;SDS011;4939;52.00085300;4.17406100;2022-07-29T04:24:16;7.90;;;2.30;;
9799;SDS011;4939;52.00085300;4.17406100;2022-07-29T04:26:42;7.68;;;2.45;;
9799;SDS011;4939;52.00085300;4.17406100;2022-07-29T04:29:08;8.25;;;2.72;;
9799;SDS011;4939;52.00085300;4.17406100;2022-07-29T04:31:34;9.73;;;2.45;;
9799;SDS011;4939;52.00085300;4.17406100;2022-07-29T04:34:00;7.78;;;2.35;;
9799;SDS011;4939;52.00085300;4.17406100;2022-07-29T04:36:26;6.85;;;2.38;;
9799;SDS011;4939;52.00085300;4.17406100;2022-07-29T04:38:52;8.93;;;2.60;;
9799;SDS011;4939;52.00085300;4.17406100;2022-07-29T04:41:18;13.20;;;2.40;;
9799;SDS011;4939;52.00085300;4.17406100;2022-07-29T04:43:44;8.10;;;2.33;;
9799;SDS011;4939;52.00085300;4.17406100;2022-07-29T04:46:10;13.38;;;2.63;;
9799;SDS011;4939;52.00085300;4.17406100;2022-07-29T04:48:36;7.60;;;3.22;;
9799;SDS011;4939;52.00085300;4.17406100;2022-07-29T04:51:02;5.32;;;2.50;;
9799;SDS011;4939;52.00085300;4.17406100;2022-07-29T04:53:28;6.70;;;2.30;;
9799;SDS011;4939;52.00085300;4.17406100;2022-07-29T04:55:54;5.40;;;2.10;;
9799;SDS011;4939;52.00085300;4.17406100;2022-07-29T04:58:20;5.68;;;2.17;;
9799;SDS011;4939;52.00085300;4.17406100;2022-07-29T05:00:48;5.80;;;2.40;;
9799;SDS011;4939;52.00085300;4.17406100;2022-07-29T05:03:14;7.45;;;2.75;;
9799;SDS011;4939;52.00085300;4.17406100;2022-07-29T05:05:40;6.38;;;2.30;;
9799;SDS011;4939;52.00085300;4.17406100;2022-07-29T05:08:07;8.98;;;2.60;;
9799;SDS011;4939;52.00085300;4.17406100;2022-07-29T05:10:33;9.85;;;2.63;;
9799;SDS011;4939;52.00085300;4.17406100;2022-07-29T05:13:03;7.15;;;2.33;;
9799;SDS011;4939;52.00085300;4.17406100;2022-07-29T05:15:30;14.45;;;2.40;;
9799;SDS011;4939;52.00085300;4.17406100;2022-07-29T05:17:56;7.45;;;2.65;;
9799;SDS011;4939;52.00085300;4.17406100;2022-07-29T05:20:22;8.52;;;2.50;;
9799;SDS011;4939;52.00085300;4.17406100;2022-07-29T05:22:53;6.35;;;2.13;;
9799;SDS011;4939;52.00085300;4.17406100;2022-07-29T05:25:19;6.63;;;2.45;;
9799;SDS011;4939;52.00085300;4.17406100;2022-07-29T05:27:45;7.10;;;2.25;;
9799;SDS011;4939;52.00085300;4.17406100;2022-07-29T05:30:11;7.03;;;2.17;;
9799;SDS011;4939;52.00085300;4.17406100;2022-07-29T05:32:37;6.85;;;1.85;;
9799;SDS011;4939;52.00085300;4.17406100;2022-07-29T05:35:03;7.43;;;2.22;;
9799;SDS011;4939;52.00085300;4.17406100;2022-07-29T05:37:29;5.18;;;2.13;;
9799;SDS011;4939;52.00085300;4.17406100;2022-07-29T05:39:55;5.50;;;2.22;;
9799;SDS011;4939;52.00085300;4.17406100;2022-07-29T05:42:21;9.10;;;2.03;;
9799;SDS011;4939;52.00085300;4.17406100;2022-07-29T05:44:47;6.47;;;2.15;;
9799;SDS011;4939;52.00085300;4.17406100;2022-07-29T05:47:13;7.90;;;2.40;;
9799;SDS011;4939;52.00085300;4.17406100;2022-07-29T05:49:39;7.75;;;2.10;;
9799;SDS011;4939;52.00085300;4.17406100;2022-07-29T05:52:05;7.60;;;2.10;;
9799;SDS011;4939;52.00085300;4.17406100;2022-07-29T05:54:31;6.55;;;2.10;;
9799;SDS011;4939;52.00085300;4.17406100;2022-07-29T05:56:57;5.38;;;1.80;;
9799;SDS011;4939;52.00085300;4.17406100;2022-07-29T05:59:23;6.35;;;1.98;;
9799;SDS011;4939;52.00085300;4.17406100;2022-07-29T06:01:49;6.78;;;2.50;;
9799;SDS011;4939;52.00085300;4.17406100;2022-07-29T06:04:15;9.45;;;2.38;;
9799;SDS011;4939;52.00085300;4.17406100;2022-07-29T06:06:41;6.60;;;1.88;;
9799;SDS011;4939;52.00085300;4.17406100;2022-07-29T06:09:07;11.10;;;2.83;;
9799;SDS011;4939;52.00085300;4.17406100;2022-07-29T06:11:33;6.43;;;1.98;;
9799;SDS011;4939;52.00085300;4.17406100;2022-07-29T06:13:59;7.63;;;2.20;;
9799;SDS011;4939;52.00085300;4.17406100;2022-07-29T06:16:27;5.10;;;1.98;;
9799;SDS011;4939;52.00085300;4.17406100;2022-07-29T06:18:53;6.75;;;2.38;;
9799;SDS011;4939;52.00085300;4.17406100;2022-07-29T06:21:19;7.47;;;2.05;;
9799;SDS011;4939;52.00085300;4.17406100;2022-07-29T06:23:45;6.45;;;2.20;;
9799;SDS011;4939;52.00085300;4.17406100;2022-07-29T06:26:11;7.28;;;2.50;;
9799;SDS011;4939;52.00085300;4.17406100;2022-07-29T06:28:38;8.85;;;2.10;;
9799;SDS011;4939;52.00085300;4.17406100;2022-07-29T06:31:04;8.05;;;2.28;;
9799;SDS011;4939;52.00085300;4.17406100;2022-07-29T06:33:30;6.05;;;2.13;;
9799;SDS011;4939;52.00085300;4.17406100;2022-07-29T06:35:56;5.95;;;2.22;;
9799;SDS011;4939;52.00085300;4.17406100;2022-07-29T06:38:22;6.45;;;2.03;;
9799;SDS011;4939;52.00085300;4.17406100;2022-07-29T06:40:48;7.28;;;1.88;;
9799;SDS011;4939;52.00085300;4.17406100;2022-07-29T06:43:36;6.43;;;2.30;;
9799;SDS011;4939;52.00085300;4.17406100;2022-07-29T06:46:06;12.80;;;2.22;;
9799;SDS011;4939;52.00085300;4.17406100;2022-07-29T06:48:32;16.13;;;2.35;;
9799;SDS011;4939;52.00085300;4.17406100;2022-07-29T06:50:59;5.47;;;1.85;;
9799;SDS011;4939;52.00085300;4.17406100;2022-07-29T06:53:26;6.57;;;1.90;;
9799;SDS011;4939;52.00085300;4.17406100;2022-07-29T06:55:52;7.53;;;2.20;;
9799;SDS011;4939;52.00085300;4.17406100;2022-07-29T06:58:18;7.07;;;2.63;;
9799;SDS011;4939;52.00085300;4.17406100;2022-07-29T07:00:48;7.00;;;2.15;;
9799;SDS011;4939;52.00085300;4.17406100;2022-07-29T07:03:15;5.40;;;1.98;;
9799;SDS011;4939;52.00085300;4.17406100;2022-07-29T07:05:41;6.80;;;2.10;;
9799;SDS011;4939;52.00085300;4.17406100;2022-07-29T07:08:07;5.47;;;2.17;;
9799;SDS011;4939;52.00085300;4.17406100;2022-07-29T07:10:33;7.65;;;2.08;;
9799;SDS011;4939;52.00085300;4.17406100;2022-07-29T07:13:00;8.55;;;2.53;;
9799;SDS011;4939;52.00085300;4.17406100;2022-07-29T07:15:26;5.43;;;2.10;;
9799;SDS011;4939;52.00085300;4.17406100;2022-07-29T07:17:52;13.60;;;3.33;;
9799;SDS011;4939;52.00085300;4.17406100;2022-07-29T07:20:18;9.23;;;2.50;;
9799;SDS011;4939;52.00085300;4.17406100;2022-07-29T07:22:44;5.07;;;1.90;;
9799;SDS011;4939;52.00085300;4.17406100;2022-07-29T07:25:11;9.93;;;2.20;;
9799;SDS011;4939;52.00085300;4.17406100;2022-07-29T07:27:37;6.53;;;2.47;;
9799;SDS011;4939;52.00085300;4.17406100;2022-07-29T07:30:04;5.95;;;2.40;;
9799;SDS011;4939;52.00085300;4.17406100;2022-07-29T07:32:31;6.40;;;1.98;;
9799;SDS011;4939;52.00085300;4.17406100;2022-07-29T07:34:57;7.68;;;2.42;;
9799;SDS011;4939;52.00085300;4.17406100;2022-07-29T07:37:23;5.68;;;2.20;;
9799;SDS011;4939;52.00085300;4.17406100;2022-07-29T07:39:50;6.72;;;2.08;;
9799;SDS011;4939;52.00085300;4.17406100;2022-07-29T07:42:16;9.02;;;2.83;;
9799;SDS011;4939;52.00085300;4.17406100;2022-07-29T07:44:42;5.22;;;2.05;;
9799;SDS011;4939;52.00085300;4.17406100;2022-07-29T07:47:10;7.97;;;2.42;;
9799;SDS011;4939;52.00085300;4.17406100;2022-07-29T07:49:36;10.65;;;2.53;;
9799;SDS011;4939;52.00085300;4.17406100;2022-07-29T07:52:03;6.53;;;2.10;;
9799;SDS011;4939;52.00085300;4.17406100;2022-07-29T07:54:29;10.23;;;2.17;;
9799;SDS011;4939;52.00085300;4.17406100;2022-07-29T07:56:55;5.70;;;1.98;;
9799;SDS011;4939;52.00085300;4.17406100;2022-07-29T07:59:22;10.65;;;2.38;;
9799;SDS011;4939;52.00085300;4.17406100;2022-07-29T08:01:48;7.20;;;2.20;;
9799;SDS011;4939;52.00085300;4.17406100;2022-07-29T08:04:14;6.63;;;1.92;;
9799;SDS011;4939;52.00085300;4.17406100;2022-07-29T08:06:40;6.07;;;2.10;;
9799;SDS011;4939;52.00085300;4.17406100;2022-07-29T08:09:06;5.68;;;2.17;;
9799;SDS011;4939;52.00085300;4.17406100;2022-07-29T08:11:38;5.47;;;2.13;;
9799;SDS011;4939;52.00085300;4.17406100;2022-07-29T08:14:04;8.80;;;2.55;;
9799;SDS011;4939;52.00085300;4.17406100;2022-07-29T08:16:30;6.35;;;2.40;;
9799;SDS011;4939;52.00085300;4.17406100;2022-07-29T08:18:56;5.82;;;1.92;;
9799;SDS011;4939;52.00085300;4.17406100;2022-07-29T08:21:22;10.00;;;2.25;;
9799;SDS011;4939;52.00085300;4.17406100;2022-07-29T08:23:56;7.47;;;2.42;;
9799;SDS011;4939;52.00085300;4.17406100;2022-07-29T08:26:41;9.35;;;2.03;;
9799;SDS011;4939;52.00085300;4.17406100;2022-07-29T08:29:07;9.45;;;2.00;;
9799;SDS011;4939;52.00085300;4.17406100;2022-07-29T08:31:34;8.43;;;2.00;;
9799;SDS011;4939;52.00085300;4.17406100;2022-07-29T08:34:06;6.53;;;1.83;;
9799;SDS011;4939;52.00085300;4.17406100;2022-07-29T08:36:32;5.82;;;2.13;;
9799;SDS011;4939;52.00085300;4.17406100;2022-07-29T08:38:59;5.78;;;2.53;;
9799;SDS011;4939;52.00085300;4.17406100;2022-07-29T08:41:25;7.97;;;2.40;;
9799;SDS011;4939;52.00085300;4.17406100;2022-07-29T08:43:51;11.65;;;2.25;;
9799;SDS011;4939;52.00085300;4.17406100;2022-07-29T08:46:24;6.82;;;2.00;;
9799;SDS011;4939;52.00085300;4.17406100;2022-07-29T08:48:51;6.25;;;2.10;;
9799;SDS011;4939;52.00085300;4.17406100;2022-07-29T08:51:18;6.38;;;2.10;;
9799;SDS011;4939;52.00085300;4.17406100;2022-07-29T08:53:45;6.38;;;2.05;;
9799;SDS011;4939;52.00085300;4.17406100;2022-07-29T08:56:13;7.70;;;2.20;;
9799;SDS011;4939;52.00085300;4.17406100;2022-07-29T08:58:48;7.03;;;2.00;;
9799;SDS011;4939;52.00085300;4.17406100;2022-07-29T09:01:22;6.70;;;2.20;;
9799;SDS011;4939;52.00085300;4.17406100;2022-07-29T09:04:01;11.55;;;2.25;;
9799;SDS011;4939;52.00085300;4.17406100;2022-07-29T09:06:29;7.53;;;2.13;;
9799;SDS011;4939;52.00085300;4.17406100;2022-07-29T09:09:04;10.70;;;2.90;;
9799;SDS011;4939;52.00085300;4.17406100;2022-07-29T09:11:31;8.57;;;2.17;;
9799;SDS011;4939;52.00085300;4.17406100;2022-07-29T09:13:58;6.35;;;2.50;;
9799;SDS011;4939;52.00085300;4.17406100;2022-07-29T09:16:24;7.95;;;2.60;;
9799;SDS011;4939;52.00085300;4.17406100;2022-07-29T09:18:50;10.20;;;3.15;;
9799;SDS011;4939;52.00085300;4.17406100;2022-07-29T09:21:22;8.52;;;2.63;;
9799;SDS011;4939;52.00085300;4.17406100;2022-07-29T09:24:08;5.78;;;2.53;;
9799;SDS011;4939;52.00085300;4.17406100;2022-07-29T09:26:35;7.82;;;2.85;;
9799;SDS011;4939;52.00085300;4.17406100;2022-07-29T09:29:07;6.68;;;2.90;;
9799;SDS011;4939;52.00085300;4.17406100;2022-07-29T09:31:41;11.00;;;2.83;;
9799;SDS011;4939;52.00085300;4.17406100;2022-07-29T09:34:07;8.48;;;3.42;;
9799;SDS011;4939;52.00085300;4.17406100;2022-07-29T09:36:44;13.95;;;3.47;;
9799;SDS011;4939;52.00085300;4.17406100;2022-07-29T09:39:11;8.02;;;3.35;;
9799;SDS011;4939;52.00085300;4.17406100;2022-07-29T09:41:45;11.75;;;3.25;;
9799;SDS011;4939;52.00085300;4.17406100;2022-07-29T09:44:17;9.37;;;2.93;;
9799;SDS011;4939;52.00085300;4.17406100;2022-07-29T09:47:00;9.50;;;2.88;;
9799;SDS011;4939;52.00085300;4.17406100;2022-07-29T09:49:34;9.73;;;3.20;;
9799;SDS011;4939;52.00085300;4.17406100;2022-07-29T09:52:01;7.03;;;2.67;;
9799;SDS011;4939;52.00085300;4.17406100;2022-07-29T09:54:35;8.82;;;2.83;;
9799;SDS011;4939;52.00085300;4.17406100;2022-07-29T09:57:02;6.07;;;2.53;;
9799;SDS011;4939;52.00085300;4.17406100;2022-07-29T09:59:35;7.57;;;2.80;;
9799;SDS011;4939;52.00085300;4.17406100;2022-07-29T10:02:14;11.68;;;3.00;;
9799;SDS011;4939;52.00085300;4.17406100;2022-07-29T10:04:47;5.90;;;2.33;;
9799;SDS011;4939;52.00085300;4.17406100;2022-07-29T10:07:13;7.30;;;2.88;;
9799;SDS011;4939;52.00085300;4.17406100;2022-07-29T10:09:39;8.55;;;2.53;;
9799;SDS011;4939;52.00085300;4.17406100;2022-07-29T10:12:15;7.70;;;2.80;;
9799;SDS011;4939;52.00085300;4.17406100;2022-07-29T10:14:41;10.52;;;3.45;;
9799;SDS011;4939;52.00085300;4.17406100;2022-07-29T10:17:14;8.57;;;3.15;;
9799;SDS011;4939;52.00085300;4.17406100;2022-07-29T10:19:41;7.20;;;2.70;;
9799;SDS011;4939;52.00085300;4.17406100;2022-07-29T10:22:08;10.25;;;2.95;;
9799;SDS011;4939;52.00085300;4.17406100;2022-07-29T10:24:34;9.63;;;3.33;;
9799;SDS011;4939;52.00085300;4.17406100;2022-07-29T10:27:02;8.13;;;2.92;;
9799;SDS011;4939;52.00085300;4.17406100;2022-07-29T10:29:29;6.72;;;3.08;;
9799;SDS011;4939;52.00085300;4.17406100;2022-07-29T10:34:32;9.18;;;3.55;;
9799;SDS011;4939;52.00085300;4.17406100;2022-07-29T10:39:39;9.95;;;3.20;;
9799;SDS011;4939;52.00085300;4.17406100;2022-07-29T10:44:35;14.45;;;3.70;;
9799;SDS011;4939;52.00085300;4.17406100;2022-07-29T10:47:04;7.25;;;3.03;;
9799;SDS011;4939;52.00085300;4.17406100;2022-07-29T10:49:30;8.57;;;3.60;;
9799;SDS011;4939;52.00085300;4.17406100;2022-07-29T10:52:09;11.65;;;3.30;;
9799;SDS011;4939;52.00085300;4.17406100;2022-07-29T10:57:15;7.65;;;3.10;;
9799;SDS011;4939;52.00085300;4.17406100;2022-07-29T10:59:49;8.38;;;3.10;;
9799;SDS011;4939;52.00085300;4.17406100;2022-07-29T11:05:14;12.60;;;3.90;;
9799;SDS011;4939;52.00085300;4.17406100;2022-07-29T11:10:27;7.82;;;3.20;;
9799;SDS011;4939;52.00085300;4.17406100;2022-07-29T11:12:59;11.65;;;3.20;;
9799;SDS011;4939;52.00085300;4.17406100;2022-07-29T11:15:25;7.47;;;2.92;;
9799;SDS011;4939;52.00085300;4.17406100;2022-07-29T11:22:58;10.90;;;3.20;;
9799;SDS011;4939;52.00085300;4.17406100;2022-07-29T11:25:31;13.80;;;3.13;;
9799;SDS011;4939;52.00085300;4.17406100;2022-07-29T11:28:08;11.98;;;3.58;;
9799;SDS011;4939;52.00085300;4.17406100;2022-07-29T11:30:50;13.13;;;3.67;;
9799;SDS011;4939;52.00085300;4.17406100;2022-07-29T11:33:29;14.45;;;3.40;;
9799;SDS011;4939;52.00085300;4.17406100;2022-07-29T11:36:07;12.23;;;3.78;;
9799;SDS011;4939;52.00085300;4.17406100;2022-07-29T11:38:34;12.65;;;3.80;;
9799;SDS011;4939;52.00085300;4.17406100;2022-07-29T11:44:00;9.50;;;3.85;;
9799;SDS011;4939;52.00085300;4.17406100;2022-07-29T11:46:47;9.02;;;3.35;;
9799;SDS011;4939;52.00085300;4.17406100;2022-07-29T11:49:23;8.75;;;3.30;;
9799;SDS011;4939;52.00085300;4.17406100;2022-07-29T11:51:50;9.63;;;3.17;;
9799;SDS011;4939;52.00085300;4.17406100;2022-07-29T11:54:16;8.68;;;3.80;;
9799;SDS011;4939;52.00085300;4.17406100;2022-07-29T11:56:53;12.00;;;4.20;;
9799;SDS011;4939;52.00085300;4.17406100;2022-07-29T11:59:19;17.58;;;5.43;;
9799;SDS011;4939;52.00085300;4.17406100;2022-07-29T12:04:32;9.27;;;4.00;;
9799;SDS011;4939;52.00085300;4.17406100;2022-07-29T12:07:05;8.27;;;3.33;;
9799;SDS011;4939;52.00085300;4.17406100;2022-07-29T12:09:31;12.13;;;3.50;;
9799;SDS011;4939;52.00085300;4.17406100;2022-07-29T12:11:57;9.15;;;3.78;;
9799;SDS011;4939;52.00085300;4.17406100;2022-07-29T12:14:31;7.25;;;3.35;;
9799;SDS011;4939;52.00085300;4.17406100;2022-07-29T12:16:57;12.95;;;3.95;;
9799;SDS011;4939;52.00085300;4.17406100;2022-07-29T12:19:30;9.88;;;4.03;;
9799;SDS011;4939;52.00085300;4.17406100;2022-07-29T12:22:07;11.05;;;4.22;;
9799;SDS011;4939;52.00085300;4.17406100;2022-07-29T12:24:45;10.20;;;4.07;;
9799;SDS011;4939;52.00085300;4.17406100;2022-07-29T12:27:11;8.32;;;3.90;;
9799;SDS011;4939;52.00085300;4.17406100;2022-07-29T12:29:45;11.77;;;4.13;;
9799;SDS011;4939;52.00085300;4.17406100;2022-07-29T12:32:11;13.93;;;3.72;;
9799;SDS011;4939;52.00085300;4.17406100;2022-07-29T12:34:38;8.40;;;3.70;;
9799;SDS011;4939;52.00085300;4.17406100;2022-07-29T12:37:04;8.90;;;4.05;;
9799;SDS011;4939;52.00085300;4.17406100;2022-07-29T12:39:34;13.68;;;3.97;;
9799;SDS011;4939;52.00085300;4.17406100;2022-07-29T12:42:11;9.88;;;4.22;;
9799;SDS011;4939;52.00085300;4.17406100;2022-07-29T12:44:44;8.50;;;3.92;;
9799;SDS011;4939;52.00085300;4.17406100;2022-07-29T12:47:10;11.65;;;3.70;;
9799;SDS011;4939;52.00085300;4.17406100;2022-07-29T12:49:36;8.75;;;3.83;;
9799;SDS011;4939;52.00085300;4.17406100;2022-07-29T12:52:22;8.35;;;3.28;;
9799;SDS011;4939;52.00085300;4.17406100;2022-07-29T12:54:55;14.55;;;3.95;;
9799;SDS011;4939;52.00085300;4.17406100;2022-07-29T12:57:22;15.32;;;4.03;;
9799;SDS011;4939;52.00085300;4.17406100;2022-07-29T13:00:05;10.52;;;3.75;;
9799;SDS011;4939;52.00085300;4.17406100;2022-07-29T13:02:40;9.95;;;3.47;;
9799;SDS011;4939;52.00085300;4.17406100;2022-07-29T13:05:13;8.25;;;3.28;;
9799;SDS011;4939;52.00085300;4.17406100;2022-07-29T13:07:39;9.45;;;4.07;;
9799;SDS011;4939;52.00085300;4.17406100;2022-07-29T13:12:38;7.97;;;3.72;;
9799;SDS011;4939;52.00085300;4.17406100;2022-07-29T13:15:13;8.25;;;3.20;;
9799;SDS011;4939;52.00085300;4.17406100;2022-07-29T13:17:46;10.93;;;3.80;;
9799;SDS011;4939;52.00085300;4.17406100;2022-07-29T13:20:12;9.75;;;3.70;;
9799;SDS011;4939;52.00085300;4.17406100;2022-07-29T13:22:39;11.77;;;3.70;;
9799;SDS011;4939;52.00085300;4.17406100;2022-07-29T13:25:06;8.80;;;3.63;;
9799;SDS011;4939;52.00085300;4.17406100;2022-07-29T13:27:32;8.70;;;4.35;;
9799;SDS011;4939;52.00085300;4.17406100;2022-07-29T13:29:59;9.18;;;4.28;;
9799;SDS011;4939;52.00085300;4.17406100;2022-07-29T13:32:27;12.13;;;4.63;;
9799;SDS011;4939;52.00085300;4.17406100;2022-07-29T13:34:57;9.65;;;4.57;;
9799;SDS011;4939;52.00085300;4.17406100;2022-07-29T13:39:51;13.00;;;4.60;;
9799;SDS011;4939;52.00085300;4.17406100;2022-07-29T13:42:25;12.30;;;4.32;;
9799;SDS011;4939;52.00085300;4.17406100;2022-07-29T13:44:51;9.13;;;3.78;;
9799;SDS011;4939;52.00085300;4.17406100;2022-07-29T13:47:18;8.30;;;3.70;;
9799;SDS011;4939;52.00085300;4.17406100;2022-07-29T13:49:44;11.77;;;4.45;;
9799;SDS011;4939;52.00085300;4.17406100;2022-07-29T13:52:10;10.27;;;3.80;;
9799;SDS011;4939;52.00085300;4.17406100;2022-07-29T13:54:43;15.77;;;4.18;;